createdAt,value
2019-02-05T00:02:10.765Z,9.00
2019-02-05T00:04:51.029Z,7.43
2019-02-05T00:07:32.056Z,9.40
2019-02-05T00:10:12.925Z,9.73
2019-02-05T00:12:53.405Z,10.00
2019-02-05T00:15:34.303Z,10.60
2019-02-05T00:18:15.084Z,10.63
2019-02-05T00:20:55.834Z,9.73
2019-02-05T00:23:36.308Z,8.80
2019-02-05T00:26:17.392Z,9.57
2019-02-05T00:28:58.183Z,9.93
2019-02-05T00:31:39.188Z,9.43
2019-02-05T00:34:20.012Z,9.20
2019-02-05T00:37:02.198Z,10.17
2019-02-05T00:39:43.563Z,9.40
2019-02-05T00:42:24.215Z,8.73
2019-02-05T00:45:04.805Z,9.00
2019-02-05T00:47:45.490Z,9.43
2019-02-05T00:50:26.395Z,8.87
2019-02-05T00:53:07.097Z,10.20
2019-02-05T00:55:47.738Z,10.40
2019-02-05T00:58:28.414Z,10.67
2019-02-05T01:01:09.374Z,10.30
2019-02-05T01:03:50.099Z,8.77
2019-02-05T01:06:30.519Z,9.30
2019-02-05T01:09:11.349Z,9.73
2019-02-05T01:11:52.009Z,9.60
2019-02-05T01:14:32.665Z,10.50
2019-02-05T01:17:13.460Z,10.07
2019-02-05T01:19:54.182Z,10.90
2019-02-05T01:22:35.300Z,10.70
2019-02-05T01:25:15.804Z,11.47
2019-02-05T01:27:44.215Z,10.83
2019-02-05T01:30:32.387Z,11.67
2019-02-05T01:33:20.284Z,11.27
2019-02-05T01:36:09.800Z,10.60
2019-02-05T01:38:57.564Z,11.83
2019-02-05T01:41:45.311Z,11.93
2019-02-05T01:44:33.077Z,12.40
2019-02-05T01:47:20.865Z,11.73
2019-02-05T01:50:29.573Z,11.90
2019-02-05T01:53:17.336Z,10.93
2019-02-05T01:56:05.550Z,12.47
2019-02-05T01:58:53.414Z,12.23
2019-02-05T02:01:41.194Z,12.03
2019-02-05T02:04:28.952Z,12.57
2019-02-05T02:07:16.697Z,12.27
2019-02-05T02:10:25.436Z,12.40
2019-02-05T02:13:13.174Z,12.27
2019-02-05T02:15:54.287Z,12.03
2019-02-05T02:18:34.905Z,12.13
2019-02-05T02:21:15.921Z,11.40
2019-02-05T02:23:56.764Z,11.97
2019-02-05T02:26:38.310Z,11.60
2019-02-05T02:29:19.084Z,11.57
2019-02-05T02:32:00.282Z,12.03
2019-02-05T02:34:41.189Z,10.40
2019-02-05T02:37:21.934Z,11.20
2019-02-05T02:40:02.125Z,12.53
2019-02-05T02:42:42.772Z,11.63
2019-02-05T02:45:23.405Z,12.00
2019-02-05T02:48:04.252Z,11.90
2019-02-05T02:53:27.317Z,12.30
2019-02-05T02:56:07.754Z,11.93
2019-02-05T02:58:48.408Z,11.67
2019-02-05T03:01:29.613Z,11.73
2019-02-05T03:04:10.489Z,14.90
2019-02-05T03:06:51.273Z,13.83
2019-02-05T03:09:32.210Z,13.33
2019-02-05T03:12:12.762Z,13.83
2019-02-05T03:14:53.647Z,11.23
2019-02-05T03:17:34.420Z,15.70
2019-02-05T03:20:15.501Z,15.03
2019-02-05T03:22:56.245Z,15.57
2019-02-05T03:25:36.910Z,15.63
2019-02-05T03:28:05.313Z,15.67
2019-02-05T03:30:53.086Z,15.83
2019-02-05T03:33:42.544Z,17.47
2019-02-05T03:36:30.324Z,18.50
2019-02-05T03:39:18.109Z,18.60
2019-02-05T03:42:05.848Z,17.37
2019-02-05T03:44:53.613Z,16.77
2019-02-05T03:47:41.380Z,16.07
2019-02-05T03:50:29.901Z,16.93
2019-02-05T03:53:37.097Z,15.13
2019-02-05T03:56:44.193Z,16.37
2019-02-05T03:59:51.291Z,16.47
2019-02-05T04:02:58.455Z,14.57
2019-02-05T04:06:07.173Z,16.50
2019-02-05T04:09:14.281Z,16.37
2019-02-05T04:11:55.219Z,7.50
2019-02-05T04:14:36.426Z,16.83
2019-02-05T04:17:17.369Z,16.77
2019-02-05T04:19:58.237Z,17.83
2019-02-05T04:22:39.097Z,16.67
2019-02-05T04:25:19.743Z,17.67
2019-02-05T04:28:00.840Z,18.07
2019-02-05T04:31:08.180Z,18.07
2019-02-05T04:34:15.504Z,19.33
2019-02-05T04:37:24.345Z,17.13
2019-02-05T04:40:31.434Z,17.97
2019-02-05T04:43:12.400Z,18.00
2019-02-05T04:45:53.188Z,17.83
2019-02-05T04:48:34.386Z,18.43
2019-02-05T04:51:17.784Z,19.23
2019-02-05T04:53:58.564Z,19.83
2019-02-05T04:56:39.321Z,20.50
2019-02-05T04:59:20.151Z,20.73
2019-02-05T05:02:00.521Z,19.77
2019-02-05T05:04:41.379Z,22.00
2019-02-05T05:07:22.442Z,21.70
2019-02-05T05:10:02.980Z,22.17
2019-02-05T05:12:44.094Z,22.20
2019-02-05T05:15:24.587Z,20.07
2019-02-05T05:18:05.856Z,20.13
2019-02-05T05:20:46.420Z,19.97
2019-02-05T05:23:27.305Z,20.37
2019-02-05T05:26:07.940Z,19.90
2019-02-05T05:28:48.781Z,19.63
2019-02-05T05:31:29.399Z,19.27
2019-02-05T05:34:10.531Z,20.00
2019-02-05T05:36:51.670Z,19.80
2019-02-05T05:39:32.617Z,21.30
2019-02-05T05:42:13.831Z,20.20
2019-02-05T05:44:55.350Z,19.63
2019-02-05T05:47:36.358Z,20.13
2019-02-05T05:50:17.161Z,20.37
2019-02-05T05:52:57.770Z,17.20
2019-02-05T05:55:38.188Z,17.83
2019-02-05T05:58:23.496Z,18.73
2019-02-05T06:01:01.774Z,18.53
2019-02-05T06:03:42.429Z,18.63
2019-02-05T06:06:23.061Z,18.00
2019-02-05T06:09:05.248Z,19.63
2019-02-05T06:11:46.284Z,18.23
2019-02-05T06:14:27.477Z,19.37
2019-02-05T06:17:08.440Z,18.73
2019-02-05T06:19:49.706Z,18.83
2019-02-05T06:22:30.454Z,15.03
2019-02-05T06:25:11.058Z,19.00
2019-02-05T06:27:51.970Z,15.33
2019-02-05T06:30:32.147Z,19.30
2019-02-05T06:33:13.088Z,20.30
2019-02-05T06:35:54.060Z,20.87
2019-02-05T06:38:34.595Z,19.43
2019-02-05T06:41:14.885Z,18.77
2019-02-05T06:43:55.572Z,21.83
2019-02-05T06:46:36.360Z,20.97
2019-02-05T06:49:17.052Z,20.03
2019-02-05T06:51:57.702Z,20.77
2019-02-05T06:54:38.339Z,13.80
2019-02-05T06:57:18.953Z,20.40
2019-02-05T07:00:00.185Z,21.53
2019-02-05T07:02:28.731Z,19.93
2019-02-05T07:05:16.803Z,20.93
2019-02-05T07:08:06.131Z,21.07
2019-02-05T07:10:53.895Z,19.83
2019-02-05T07:13:41.645Z,18.90
2019-02-05T07:16:29.409Z,18.90
2019-02-05T07:19:17.174Z,18.23
2019-02-05T07:21:47.324Z,19.40
2019-02-05T07:24:35.085Z,20.17
2019-02-05T07:27:23.073Z,19.07
2019-02-05T07:30:31.879Z,20.10
2019-02-05T07:33:19.624Z,18.03
2019-02-05T07:36:07.632Z,19.10
2019-02-05T07:38:55.472Z,16.27
2019-02-05T07:41:43.314Z,18.80
2019-02-05T07:44:31.329Z,18.03
2019-02-05T07:47:19.340Z,17.47
2019-02-05T07:50:28.073Z,19.87
2019-02-05T07:53:08.681Z,20.77
2019-02-05T07:55:49.270Z,20.10
2019-02-05T07:58:30.297Z,19.67
2019-02-05T08:01:10.753Z,18.17
2019-02-05T08:03:51.380Z,19.43
2019-02-05T08:06:32.344Z,19.87
2019-02-05T08:09:13.026Z,18.77
2019-02-05T08:11:53.881Z,13.87
2019-02-05T08:14:34.909Z,18.07
2019-02-05T08:17:15.560Z,18.40
2019-02-05T08:19:56.405Z,18.40
2019-02-05T08:22:37.188Z,13.87
2019-02-05T08:25:18.236Z,17.73
2019-02-05T08:27:59.293Z,17.47
2019-02-05T08:30:40.355Z,17.00
2019-02-05T08:33:21.148Z,20.23
2019-02-05T08:36:02.069Z,18.77
2019-02-05T08:38:42.995Z,20.57
2019-02-05T08:41:23.749Z,19.10
2019-02-05T08:44:04.601Z,18.37
2019-02-05T08:46:45.693Z,19.47
2019-02-05T08:49:26.506Z,20.37
2019-02-05T08:52:07.414Z,19.53
2019-02-05T08:54:48.504Z,21.80
2019-02-05T08:57:29.357Z,21.37
2019-02-05T09:00:10.205Z,20.30
2019-02-05T09:02:51.018Z,21.00
2019-02-05T09:05:31.825Z,23.27
2019-02-05T09:08:12.773Z,22.17
2019-02-05T09:10:53.187Z,23.50
2019-02-05T09:13:33.666Z,23.73
2019-02-05T09:16:14.408Z,24.97
2019-02-05T09:18:54.974Z,26.00
2019-02-05T09:21:35.800Z,24.87
2019-02-05T09:24:16.325Z,24.37
2019-02-05T09:26:57.537Z,23.17
2019-02-05T09:29:38.700Z,23.77
2019-02-05T09:32:19.654Z,24.07
2019-02-05T09:35:00.384Z,23.87
2019-02-05T09:37:41.732Z,23.87
2019-02-05T09:40:21.956Z,24.47
2019-02-05T09:43:02.796Z,25.60
2019-02-05T09:45:43.375Z,25.17
2019-02-05T09:48:24.032Z,24.33
2019-02-05T09:51:04.186Z,18.27
2019-02-05T09:53:44.824Z,23.50
2019-02-05T09:56:25.692Z,24.60
2019-02-05T09:59:06.924Z,16.63
2019-02-05T10:01:47.425Z,20.37
2019-02-05T10:04:27.969Z,21.50
2019-02-05T10:07:08.608Z,22.77
2019-02-05T10:09:49.194Z,15.27
2019-02-05T10:12:30.057Z,23.33
2019-02-05T10:15:10.736Z,22.80
2019-02-05T10:17:51.311Z,22.27
2019-02-05T10:20:32.827Z,22.70
2019-02-05T10:23:13.748Z,19.60
2019-02-05T10:25:54.393Z,20.73
2019-02-05T10:28:35.120Z,20.33
2019-02-05T10:31:15.851Z,19.80
2019-02-05T10:33:56.672Z,19.70
2019-02-05T10:36:37.412Z,16.60
2019-02-05T10:39:18.208Z,11.27
2019-02-05T10:41:59.150Z,18.13
2019-02-05T10:44:39.777Z,17.87
2019-02-05T10:47:20.469Z,19.37
2019-02-05T10:50:00.984Z,17.73
2019-02-05T10:52:41.745Z,17.60
2019-02-05T10:55:22.952Z,17.23
2019-02-05T10:58:03.490Z,17.93
2019-02-05T11:00:43.945Z,16.90
2019-02-05T11:03:24.523Z,16.67
2019-02-05T11:06:04.849Z,17.03
2019-02-05T11:08:45.757Z,16.17
2019-02-05T11:11:27.229Z,17.60
2019-02-05T11:14:07.665Z,16.60
2019-02-05T11:16:48.464Z,16.53
2019-02-05T11:19:29.431Z,16.47
2019-02-05T11:22:09.921Z,15.50
2019-02-05T11:24:50.590Z,16.50
2019-02-05T11:27:31.433Z,16.93
2019-02-05T11:30:20.025Z,16.23
2019-02-05T11:32:54.253Z,14.37
2019-02-05T11:35:34.524Z,16.23
2019-02-05T11:38:15.423Z,13.03
2019-02-05T11:40:55.821Z,16.97
2019-02-05T11:43:37.066Z,16.77
2019-02-05T11:48:59.577Z,17.83
2019-02-05T11:51:40.000Z,17.10
2019-02-05T11:54:20.634Z,16.27
2019-02-05T11:57:01.281Z,14.40
2019-02-05T11:59:42.452Z,16.90
2019-02-05T12:02:23.580Z,16.13
2019-02-05T12:05:04.543Z,16.50
2019-02-05T12:07:45.449Z,17.40
2019-02-05T12:10:26.172Z,17.77
2019-02-05T12:13:06.765Z,15.93
2019-02-05T12:15:47.796Z,16.80
2019-02-05T12:18:28.642Z,16.47
2019-02-05T12:21:09.636Z,13.80
2019-02-05T12:23:50.196Z,15.57
2019-02-05T12:26:30.745Z,15.97
2019-02-05T12:29:11.652Z,15.53
2019-02-05T12:31:52.693Z,15.83
2019-02-05T12:34:32.953Z,15.17
2019-02-05T12:37:13.776Z,17.47
2019-02-05T12:39:54.396Z,16.00
2019-02-05T12:42:35.340Z,16.97
2019-02-05T12:45:16.417Z,16.10
2019-02-05T12:47:57.315Z,16.47
2019-02-05T12:50:38.081Z,16.73
2019-02-05T12:53:18.825Z,10.60
2019-02-05T12:55:59.890Z,17.80
2019-02-05T12:58:40.624Z,16.93
2019-02-05T13:01:21.655Z,16.93
2019-02-05T13:04:02.530Z,18.30
2019-02-05T13:06:43.778Z,16.83
2019-02-05T13:09:24.889Z,15.33
2019-02-05T13:12:05.460Z,16.90
2019-02-05T13:17:16.632Z,17.23
2019-02-05T13:19:46.284Z,16.60
2019-02-05T13:22:14.804Z,16.20
2019-02-05T13:24:43.269Z,15.83
2019-02-05T13:27:11.716Z,16.23
2019-02-05T13:29:40.207Z,15.63
2019-02-05T13:32:09.054Z,16.73
2019-02-05T13:34:37.570Z,16.70
2019-02-05T13:37:10.600Z,14.93
2019-02-05T13:39:39.264Z,15.83
2019-02-05T13:42:07.722Z,15.10
2019-02-05T13:44:36.276Z,9.23
2019-02-05T13:47:04.949Z,15.13
2019-02-05T13:49:33.789Z,16.30
2019-02-05T13:52:02.220Z,16.23
2019-02-05T13:54:30.795Z,15.20
2019-02-05T13:56:59.192Z,16.40
2019-02-05T13:59:27.915Z,13.03
2019-02-05T14:01:56.741Z,15.57
2019-02-05T14:04:25.200Z,14.37
2019-02-05T14:06:53.621Z,14.23
2019-02-05T14:09:22.104Z,14.63
2019-02-05T14:11:50.581Z,14.50
2019-02-05T14:14:18.984Z,15.10
2019-02-05T14:16:47.414Z,7.87
2019-02-05T14:19:16.128Z,14.23
2019-02-05T14:21:44.547Z,14.27
2019-02-05T14:24:12.984Z,13.80
2019-02-05T14:26:41.404Z,14.70
2019-02-05T14:29:09.852Z,13.40
2019-02-05T14:31:38.271Z,14.00
2019-02-05T14:34:06.686Z,13.63
2019-02-05T14:36:35.079Z,13.87
2019-02-05T14:39:05.306Z,14.13
2019-02-05T14:41:33.732Z,14.30
2019-02-05T14:44:02.401Z,13.30
2019-02-05T14:46:30.796Z,13.10
2019-02-05T14:48:59.249Z,9.80
2019-02-05T14:51:27.928Z,4.80
2019-02-05T14:53:56.338Z,7.10
2019-02-05T14:56:24.782Z,12.80
2019-02-05T14:58:53.314Z,14.70
2019-02-05T15:01:22.283Z,14.07
2019-02-05T15:03:50.786Z,14.37
2019-02-05T15:06:19.474Z,15.43
2019-02-05T15:08:47.985Z,6.33
2019-02-05T15:11:16.416Z,11.03
2019-02-05T15:13:48.104Z,13.67
2019-02-05T15:16:16.487Z,14.53
2019-02-05T15:18:48.120Z,14.37
2019-02-05T15:21:16.997Z,14.97
2019-02-05T15:23:45.425Z,14.13
2019-02-05T15:26:13.911Z,14.50
2019-02-05T15:28:42.340Z,14.20
2019-02-05T15:31:11.029Z,13.23
2019-02-05T15:33:46.361Z,14.10
2019-02-05T15:36:19.576Z,14.70
2019-02-05T15:38:48.028Z,13.07
2019-02-05T15:41:16.436Z,14.90
2019-02-05T15:43:44.855Z,14.33
2019-02-05T15:46:13.283Z,15.10
2019-02-05T15:48:43.231Z,14.97
2019-02-05T15:51:11.936Z,14.07
2019-02-05T15:53:40.394Z,14.50
2019-02-05T15:56:09.058Z,14.43
2019-02-05T15:58:37.552Z,14.93
2019-02-05T16:01:06.600Z,14.57
2019-02-05T16:03:35.480Z,15.07
2019-02-05T16:06:05.469Z,15.30
2019-02-05T16:08:33.891Z,14.63
2019-02-05T16:11:02.424Z,14.83
2019-02-05T16:13:30.876Z,14.80
2019-02-05T16:15:59.363Z,14.50
2019-02-05T16:18:27.868Z,14.30
2019-02-05T16:20:56.495Z,11.97
2019-02-05T16:23:24.969Z,15.13
2019-02-05T16:25:53.426Z,14.40
2019-02-05T16:28:22.084Z,14.63
2019-02-05T16:30:50.700Z,14.97
2019-02-05T16:33:19.423Z,14.63
2019-02-05T16:35:47.842Z,15.50
2019-02-05T16:38:16.648Z,15.57
2019-02-05T16:40:45.051Z,16.23
2019-02-05T16:43:13.579Z,14.33
2019-02-05T16:45:42.073Z,16.07
2019-02-05T16:48:10.624Z,16.67
2019-02-05T16:50:44.024Z,17.23
2019-02-05T16:53:12.935Z,8.17
2019-02-05T16:55:41.503Z,15.37
2019-02-05T16:58:09.977Z,15.97
2019-02-05T17:00:39.348Z,16.53
2019-02-05T17:03:07.988Z,16.70
2019-02-05T17:05:38.912Z,17.03
2019-02-05T17:08:07.911Z,17.23
2019-02-05T17:10:36.436Z,16.90
2019-02-05T17:13:05.690Z,18.17
2019-02-05T17:15:34.112Z,17.60
2019-02-05T17:18:04.181Z,15.63
2019-02-05T17:20:33.220Z,16.83
2019-02-05T17:23:01.656Z,17.17
2019-02-05T17:25:30.416Z,17.93
2019-02-05T17:28:00.800Z,18.53
2019-02-05T17:30:32.206Z,19.17
2019-02-05T17:33:00.756Z,18.50
2019-02-05T17:35:29.252Z,18.90
2019-02-05T17:37:57.732Z,19.17
2019-02-05T17:40:26.916Z,19.80
2019-02-05T17:42:55.656Z,21.13
2019-02-05T17:45:32.680Z,20.23
2019-02-05T17:48:02.951Z,20.00
2019-02-05T17:50:34.145Z,20.40
2019-02-05T17:53:02.863Z,21.23
2019-02-05T17:55:31.348Z,20.47
2019-02-05T17:57:59.773Z,20.30
2019-02-05T18:00:32.896Z,19.43
2019-02-05T18:03:01.323Z,21.17
2019-02-05T18:05:34.736Z,21.90
2019-02-05T18:08:02.597Z,21.87
2019-02-05T18:10:33.901Z,21.17
2019-02-05T18:13:02.347Z,21.20
2019-02-05T18:15:33.895Z,21.30
2019-02-05T18:18:05.114Z,21.77
2019-02-05T18:20:33.980Z,22.33
2019-02-05T18:23:02.509Z,22.13
2019-02-05T18:25:33.557Z,22.97
2019-02-05T18:28:02.436Z,23.73
2019-02-05T18:30:35.270Z,23.83
2019-02-05T18:33:05.382Z,24.80
2019-02-05T18:35:34.245Z,23.70
2019-02-05T18:38:04.816Z,23.60
2019-02-05T18:40:33.250Z,24.53
2019-02-05T18:43:01.758Z,25.37
2019-02-05T18:45:30.211Z,25.23
2019-02-05T18:47:58.621Z,25.70
2019-02-05T18:50:28.899Z,26.17
2019-02-05T18:52:57.262Z,25.70
2019-02-05T18:55:28.569Z,26.93
2019-02-05T18:58:08.428Z,27.20
2019-02-05T19:00:29.208Z,26.93
2019-02-05T19:02:57.703Z,27.23
2019-02-05T19:05:26.548Z,28.23
2019-02-05T19:07:54.960Z,26.47
2019-02-05T19:10:25.991Z,29.13
2019-02-05T19:12:54.629Z,28.57
2019-02-05T19:15:26.002Z,27.13
2019-02-05T19:17:54.465Z,28.33
2019-02-05T19:20:25.274Z,27.83
2019-02-05T19:22:53.786Z,29.03
2019-02-05T19:25:24.278Z,28.93
2019-02-05T19:27:52.692Z,27.30
2019-02-05T19:30:25.518Z,29.50
2019-02-05T19:32:55.829Z,29.23
2019-02-05T19:35:24.540Z,29.57
2019-02-05T19:37:53.009Z,29.10
2019-02-05T19:40:21.459Z,30.10
2019-02-05T19:42:49.840Z,29.27
2019-02-05T19:45:19.978Z,28.47
2019-02-05T19:47:48.680Z,30.20
2019-02-05T19:50:17.187Z,29.30
2019-02-05T19:52:46.092Z,29.73
2019-02-05T19:55:14.595Z,29.33
2019-02-05T19:57:43.498Z,28.03
2019-02-05T20:00:18.245Z,29.63
2019-02-05T20:02:46.753Z,27.27
2019-02-05T20:05:16.790Z,28.30
2019-02-05T20:07:45.316Z,28.57
2019-02-05T20:10:16.046Z,29.17
2019-02-05T20:12:44.627Z,29.53
2019-02-05T20:15:19.614Z,29.13
2019-02-05T20:17:47.329Z,28.10
2019-02-05T20:20:20.753Z,29.03
2019-02-05T20:22:49.597Z,30.03
2019-02-05T20:25:18.929Z,28.63
2019-02-05T20:27:50.456Z,29.20
2019-02-05T20:30:26.257Z,27.40
2019-02-05T20:32:54.692Z,27.37
2019-02-05T20:35:23.092Z,27.27
2019-02-05T20:37:51.796Z,28.50
2019-02-05T20:40:25.056Z,26.83
2019-02-05T20:42:53.637Z,27.37
2019-02-05T20:45:22.044Z,28.53
2019-02-05T20:47:50.800Z,27.67
2019-02-05T20:50:20.200Z,27.20
2019-02-05T20:52:48.625Z,27.10
2019-02-05T20:55:21.580Z,26.20
2019-02-05T20:57:49.986Z,26.73
2019-02-05T21:00:26.645Z,28.37
2019-02-05T21:02:55.392Z,28.03
2019-02-05T21:05:24.057Z,27.67
2019-02-05T21:07:52.897Z,27.37
2019-02-05T21:10:23.831Z,28.10
2019-02-05T21:12:52.292Z,27.13
2019-02-05T21:15:21.864Z,28.10
2019-02-05T21:17:50.721Z,27.63
2019-02-05T21:20:29.614Z,26.73
2019-02-05T21:22:56.939Z,27.27
2019-02-05T21:25:25.972Z,27.30
2019-02-05T21:27:54.391Z,26.73
2019-02-05T21:30:23.960Z,28.77
2019-02-05T21:32:52.696Z,28.07
2019-02-05T21:35:21.368Z,29.27
2019-02-05T21:37:49.871Z,29.10
2019-02-05T21:40:21.639Z,28.40
2019-02-05T21:42:50.068Z,28.70
2019-02-05T21:45:29.452Z,29.37
2019-02-05T21:47:58.126Z,28.63
2019-02-05T21:50:26.525Z,28.90
2019-02-05T21:52:55.008Z,28.43
2019-02-05T21:55:24.771Z,27.83
2019-02-05T21:57:53.231Z,29.10
2019-02-05T22:00:24.386Z,28.50
2019-02-05T22:02:53.192Z,30.20
2019-02-05T22:05:21.919Z,29.17
2019-02-05T22:07:50.382Z,28.90
2019-02-05T22:10:19.338Z,29.27
2019-02-05T22:12:47.824Z,29.40
2019-02-05T22:15:18.357Z,30.30
2019-02-05T22:17:46.755Z,29.93
2019-02-05T22:20:23.399Z,29.73
2019-02-05T22:22:51.852Z,30.27
2019-02-05T22:25:25.858Z,30.80
2019-02-05T22:27:54.288Z,29.60
2019-02-05T22:30:28.141Z,31.00
2019-02-05T22:32:56.090Z,31.30
2019-02-05T22:35:24.627Z,30.90
2019-02-05T22:37:53.568Z,30.80
2019-02-05T22:40:24.113Z,31.23
2019-02-05T22:42:52.796Z,34.40
2019-02-05T22:45:31.831Z,31.97
2019-02-05T22:48:00.380Z,31.57
2019-02-05T22:50:33.220Z,30.67
2019-02-05T22:53:03.632Z,31.60
2019-02-05T22:55:32.128Z,31.27
2019-02-05T22:58:00.644Z,31.27
2019-02-05T23:00:34.008Z,29.00
2019-02-05T23:03:02.732Z,31.20
2019-02-05T23:05:56.924Z,31.47
2019-02-05T23:08:25.324Z,31.67
2019-02-05T23:11:03.546Z,32.20
2019-02-05T23:13:26.952Z,30.00
2019-02-05T23:15:55.648Z,28.90
2019-02-05T23:18:24.077Z,30.80
2019-02-05T23:20:53.973Z,30.53
2019-02-05T23:23:22.631Z,30.70
2019-02-05T23:25:51.112Z,29.83
2019-02-05T23:28:19.516Z,30.10
2019-02-05T23:30:47.916Z,28.77
2019-02-05T23:33:16.340Z,29.83
2019-02-05T23:35:44.756Z,27.80
2019-02-05T23:38:13.184Z,30.03
2019-02-05T23:40:41.688Z,29.63
2019-02-05T23:43:10.267Z,29.33
2019-02-05T23:45:38.731Z,27.70
2019-02-05T23:48:07.552Z,29.00
2019-02-05T23:50:36.028Z,28.60
2019-02-05T23:53:05.092Z,29.80
2019-02-05T23:55:33.548Z,31.53
2019-02-05T23:58:02.188Z,31.27
